createdAt,value
2019-02-26T00:00:36.603Z,27.23
2019-02-26T00:03:09.461Z,21.57
2019-02-26T00:05:42.488Z,18.70
2019-02-26T00:08:19.473Z,22.57
2019-02-26T00:10:50.304Z,25.57
2019-02-26T00:13:24.983Z,20.90
2019-02-26T00:16:03.104Z,16.37
2019-02-26T00:18:33.409Z,17.97
2019-02-26T00:21:06.293Z,18.07
2019-02-26T00:23:39.252Z,16.53
2019-02-26T00:26:12.821Z,15.90
2019-02-26T00:28:47.258Z,19.10
2019-02-26T00:31:21.530Z,13.67
2019-02-26T00:33:54.837Z,16.37
2019-02-26T00:36:29.742Z,22.63
2019-02-26T00:39:03.438Z,14.83
2019-02-26T00:41:40.245Z,16.23
2019-02-26T00:44:13.146Z,13.90
2019-02-26T00:46:46.103Z,15.07
2019-02-26T00:49:21.080Z,13.97
2019-02-26T00:51:53.784Z,12.43
2019-02-26T00:54:29.066Z,14.53
2019-02-26T00:57:03.476Z,17.40
2019-02-26T00:59:38.424Z,19.37
2019-02-26T01:02:11.293Z,18.60
2019-02-26T01:04:46.249Z,19.43
2019-02-26T01:07:23.755Z,20.07
2019-02-26T01:09:57.055Z,18.97
2019-02-26T01:12:33.019Z,17.63
2019-02-26T01:15:09.477Z,13.70
2019-02-26T01:17:42.863Z,19.23
2019-02-26T01:20:16.309Z,21.00
2019-02-26T01:22:49.313Z,16.13
2019-02-26T01:25:22.964Z,19.83
2019-02-26T01:27:57.962Z,20.00
2019-02-26T01:30:33.682Z,16.90
2019-02-26T01:33:08.055Z,20.13
2019-02-26T01:35:40.769Z,16.83
2019-02-26T01:38:14.385Z,16.30
2019-02-26T01:40:50.764Z,16.97
2019-02-26T01:43:23.104Z,18.67
2019-02-26T01:45:55.966Z,13.83
2019-02-26T01:48:29.995Z,13.67
2019-02-26T01:51:03.548Z,13.97
2019-02-26T01:53:36.835Z,17.77
2019-02-26T01:56:09.747Z,15.73
2019-02-26T01:58:42.488Z,13.13
2019-02-26T02:01:16.848Z,19.93
2019-02-26T02:03:51.341Z,14.33
2019-02-26T02:06:24.714Z,19.43
2019-02-26T02:08:57.682Z,18.73
2019-02-26T02:11:31.211Z,18.90
2019-02-26T02:14:06.034Z,17.97
2019-02-26T02:16:40.119Z,23.10
2019-02-26T02:19:18.051Z,68.13
2019-02-26T02:21:49.477Z,82.63
2019-02-26T02:24:24.551Z,64.40
2019-02-26T02:26:58.477Z,58.97
2019-02-26T02:29:32.332Z,56.23
2019-02-26T02:32:07.585Z,59.70
2019-02-26T02:34:42.889Z,40.10
2019-02-26T02:37:17.878Z,28.93
2019-02-26T02:39:50.473Z,19.73
2019-02-26T02:42:23.298Z,16.57
2019-02-26T02:44:55.989Z,14.90
2019-02-26T02:47:31.603Z,19.83
2019-02-26T02:50:05.728Z,16.60
2019-02-26T02:52:38.943Z,15.47
2019-02-26T02:55:15.575Z,13.60
2019-02-26T02:57:49.278Z,13.73
2019-02-26T03:00:23.863Z,14.50
2019-02-26T03:02:58.219Z,19.03
2019-02-26T03:05:32.060Z,18.57
2019-02-26T03:08:08.010Z,18.27
2019-02-26T03:10:43.094Z,23.23
2019-02-26T03:13:16.967Z,20.03
2019-02-26T03:15:53.407Z,17.87
2019-02-26T03:18:25.022Z,26.33
2019-02-26T03:20:59.964Z,22.07
2019-02-26T03:23:34.359Z,19.63
2019-02-26T03:26:12.569Z,21.10
2019-02-26T03:28:44.598Z,20.23
2019-02-26T03:31:17.998Z,17.83
2019-02-26T03:33:51.066Z,19.13
2019-02-26T03:36:23.864Z,19.83
2019-02-26T03:38:57.333Z,17.07
2019-02-26T03:41:31.558Z,20.43
2019-02-26T03:44:06.388Z,20.13
2019-02-26T03:46:39.169Z,21.03
2019-02-26T03:49:12.434Z,15.90
2019-02-26T03:51:45.574Z,19.63
2019-02-26T03:54:18.578Z,14.13
2019-02-26T03:56:51.676Z,19.70
2019-02-26T03:59:24.470Z,21.27
2019-02-26T04:01:57.397Z,18.47
2019-02-26T04:04:31.077Z,18.97
2019-02-26T04:07:07.163Z,14.70
2019-02-26T04:09:44.023Z,16.40
2019-02-26T04:12:15.419Z,15.60
2019-02-26T04:14:50.549Z,23.10
2019-02-26T04:17:27.909Z,20.83
2019-02-26T04:19:58.086Z,17.70
2019-02-26T04:22:35.221Z,17.47
2019-02-26T04:25:26.986Z,17.93
2019-02-26T04:28:11.348Z,14.70
2019-02-26T04:31:10.835Z,20.17
2019-02-26T04:34:23.385Z,14.67
2019-02-26T04:38:06.369Z,16.47
2019-02-26T04:41:00.418Z,14.27
2019-02-26T04:44:31.336Z,21.80
2019-02-26T04:47:24.966Z,27.60
2019-02-26T04:50:00.537Z,30.80
2019-02-26T04:52:35.763Z,25.97
2019-02-26T04:55:08.179Z,53.27
2019-02-26T04:57:43.318Z,50.03
2019-02-26T05:00:15.615Z,28.27
2019-02-26T05:02:48.597Z,21.60
2019-02-26T05:05:22.394Z,29.47
2019-02-26T05:07:56.082Z,29.40
2019-02-26T05:10:31.762Z,29.03
2019-02-26T05:13:06.441Z,22.20
2019-02-26T05:15:38.633Z,24.30
2019-02-26T05:18:11.346Z,20.93
2019-02-26T05:20:48.131Z,21.90
2019-02-26T05:23:20.596Z,20.90
2019-02-26T05:25:59.744Z,19.87
2019-02-26T05:28:35.642Z,19.40
2019-02-26T05:31:06.546Z,16.50
2019-02-26T05:33:40.194Z,18.77
2019-02-26T05:36:14.927Z,20.53
2019-02-26T05:38:49.300Z,19.03
2019-02-26T05:41:22.772Z,17.43
2019-02-26T05:43:58.287Z,16.77
2019-02-26T05:46:30.841Z,16.63
2019-02-26T05:49:06.869Z,20.70
2019-02-26T05:51:38.668Z,33.23
2019-02-26T05:54:14.789Z,32.83
2019-02-26T05:56:49.677Z,26.27
2019-02-26T05:59:21.880Z,33.43
2019-02-26T06:01:55.979Z,39.77
2019-02-26T06:04:32.004Z,25.77
2019-02-26T06:07:05.132Z,24.77
2019-02-26T06:09:37.964Z,24.07
2019-02-26T06:12:10.907Z,30.60
2019-02-26T06:14:43.776Z,18.33
2019-02-26T06:17:18.023Z,18.57
2019-02-26T06:19:53.923Z,28.50
2019-02-26T06:22:29.069Z,20.33
2019-02-26T06:25:07.094Z,25.10
2019-02-26T06:27:36.447Z,29.17
2019-02-26T06:30:12.166Z,22.53
2019-02-26T06:32:45.348Z,24.30
2019-02-26T06:35:19.372Z,34.97
2019-02-26T06:37:52.707Z,34.43
2019-02-26T06:40:25.677Z,25.43
2019-02-26T06:42:58.727Z,33.47
2019-02-26T06:45:31.788Z,31.13
2019-02-26T06:48:05.053Z,22.70
2019-02-26T06:50:38.743Z,28.50
2019-02-26T06:53:13.739Z,25.63
2019-02-26T06:55:47.738Z,23.57
2019-02-26T06:58:27.707Z,23.70
2019-02-26T07:01:00.738Z,30.43
2019-02-26T07:03:33.773Z,37.93
2019-02-26T07:06:07.649Z,40.13
2019-02-26T07:08:42.097Z,41.80
2019-02-26T07:11:15.137Z,28.83
2019-02-26T07:13:48.047Z,29.53
2019-02-26T07:16:21.200Z,34.10
2019-02-26T07:18:54.245Z,36.73
2019-02-26T07:21:27.222Z,26.63
2019-02-26T07:24:01.193Z,23.20
2019-02-26T07:26:36.710Z,23.40
2019-02-26T07:29:10.962Z,24.40
2019-02-26T07:31:44.753Z,27.67
2019-02-26T07:34:18.273Z,29.87
2019-02-26T07:36:52.583Z,28.60
2019-02-26T07:39:25.762Z,24.37
2019-02-26T07:41:58.613Z,23.10
2019-02-26T07:44:33.255Z,22.43
2019-02-26T07:47:08.616Z,25.67
2019-02-26T07:49:44.716Z,23.03
2019-02-26T07:52:17.625Z,23.07
2019-02-26T07:54:51.909Z,21.30
2019-02-26T07:57:27.114Z,24.00
2019-02-26T07:59:59.630Z,22.10
2019-02-26T08:02:33.160Z,31.93
2019-02-26T08:05:08.052Z,20.07
2019-02-26T08:07:41.110Z,13.87
2019-02-26T08:10:16.938Z,18.97
2019-02-26T08:12:50.865Z,16.23
2019-02-26T08:15:23.963Z,26.13
2019-02-26T08:17:58.441Z,13.73
2019-02-26T08:20:33.493Z,17.83
2019-02-26T08:23:06.335Z,17.07
2019-02-26T08:25:39.627Z,15.33
2019-02-26T08:28:13.483Z,18.37
2019-02-26T08:30:49.670Z,20.93
2019-02-26T08:33:22.400Z,16.63
2019-02-26T08:35:56.185Z,17.67
2019-02-26T08:38:30.221Z,14.33
2019-02-26T08:41:03.592Z,18.50
2019-02-26T08:43:36.575Z,16.17
2019-02-26T08:46:11.661Z,15.33
2019-02-26T08:48:46.628Z,16.63
2019-02-26T08:51:21.489Z,22.73
2019-02-26T08:53:55.326Z,14.87
2019-02-26T08:56:31.556Z,16.80
2019-02-26T08:59:04.671Z,15.93
2019-02-26T09:01:37.622Z,14.33
2019-02-26T09:04:12.252Z,20.27
2019-02-26T09:06:45.281Z,16.70
2019-02-26T09:09:20.484Z,21.20
2019-02-26T09:11:55.895Z,17.07
2019-02-26T09:14:32.151Z,22.52
2019-02-26T09:17:04.484Z,15.90
2019-02-26T09:19:38.172Z,15.45
2019-02-26T09:22:14.036Z,19.98
2019-02-26T09:24:46.839Z,16.95
2019-02-26T09:27:20.692Z,14.45
2019-02-26T09:29:53.596Z,22.05
2019-02-26T09:32:28.271Z,20.40
2019-02-26T09:35:04.629Z,12.23
2019-02-26T09:37:37.460Z,23.10
2019-02-26T09:40:12.079Z,17.23
2019-02-26T09:42:47.177Z,14.45
2019-02-26T09:45:20.962Z,14.98
2019-02-26T09:47:57.606Z,13.83
2019-02-26T09:50:29.811Z,14.00
2019-02-26T09:53:02.929Z,12.85
2019-02-26T09:55:36.061Z,12.37
2019-02-26T09:58:09.051Z,10.65
2019-02-26T10:00:43.143Z,11.48
2019-02-26T10:03:17.585Z,13.68
2019-02-26T10:05:53.226Z,11.63
2019-02-26T10:08:28.129Z,20.57
2019-02-26T10:11:04.288Z,13.58
2019-02-26T10:13:36.707Z,10.93
2019-02-26T10:16:09.663Z,11.33
2019-02-26T10:18:43.313Z,9.93
2019-02-26T10:21:20.335Z,15.10
2019-02-26T10:23:54.071Z,13.70
2019-02-26T10:26:30.502Z,11.70
2019-02-26T10:29:04.555Z,16.23
2019-02-26T10:31:40.426Z,12.00
2019-02-26T10:34:13.305Z,33.70
2019-02-26T10:36:49.292Z,10.70
2019-02-26T10:39:23.729Z,10.50
2019-02-26T10:41:56.797Z,13.25
2019-02-26T10:44:29.694Z,12.53
2019-02-26T10:47:03.258Z,10.55
2019-02-26T10:49:37.680Z,14.10
2019-02-26T10:52:13.396Z,12.25
2019-02-26T10:54:52.356Z,12.73
2019-02-26T10:57:26.983Z,10.23
2019-02-26T11:00:02.695Z,10.08
2019-02-26T11:02:40.585Z,19.60
2019-02-26T11:05:14.837Z,12.33
2019-02-26T11:07:48.854Z,14.20
2019-02-26T11:10:23.223Z,7.90
2019-02-26T11:12:59.406Z,13.28
2019-02-26T11:15:33.944Z,9.93
2019-02-26T11:18:08.258Z,11.25
2019-02-26T11:20:42.240Z,14.87
2019-02-26T11:23:16.237Z,9.50
2019-02-26T11:25:49.563Z,10.80
2019-02-26T11:28:27.312Z,13.72
2019-02-26T11:30:57.336Z,18.57
2019-02-26T11:33:30.585Z,9.68
2019-02-26T11:36:05.495Z,10.53
2019-02-26T11:38:41.602Z,8.20
2019-02-26T11:41:13.658Z,9.28
2019-02-26T11:43:46.763Z,8.38
2019-02-26T11:46:20.746Z,11.70
2019-02-26T11:48:55.502Z,8.70
2019-02-26T11:51:36.913Z,7.45
2019-02-26T11:54:05.080Z,5.37
2019-02-26T11:56:42.521Z,8.40
2019-02-26T11:59:14.864Z,9.30
2019-02-26T12:01:48.782Z,9.50
2019-02-26T12:04:21.607Z,10.55
2019-02-26T12:06:55.887Z,8.20
2019-02-26T12:09:31.982Z,4.85
2019-02-26T12:12:06.008Z,6.53
2019-02-26T12:14:41.152Z,6.22
2019-02-26T12:17:14.011Z,13.30
2019-02-26T12:19:48.631Z,12.23
2019-02-26T12:22:22.763Z,9.63
2019-02-26T12:24:58.869Z,5.45
2019-02-26T12:27:31.863Z,6.72
2019-02-26T12:30:07.210Z,11.68
2019-02-26T12:32:42.134Z,5.05
2019-02-26T12:35:17.903Z,6.15
2019-02-26T12:37:53.947Z,9.40
2019-02-26T12:40:27.221Z,14.45
2019-02-26T12:43:02.120Z,6.62
2019-02-26T12:45:38.708Z,8.13
2019-02-26T12:48:13.296Z,11.38
2019-02-26T12:50:45.898Z,6.47
2019-02-26T12:53:20.590Z,12.23
2019-02-26T12:55:54.724Z,5.72
2019-02-26T12:58:28.804Z,5.40
2019-02-26T13:01:01.852Z,10.78
2019-02-26T13:03:38.677Z,6.42
2019-02-26T13:06:11.991Z,5.75
2019-02-26T13:08:47.131Z,6.12
2019-02-26T13:11:21.023Z,7.28
2019-02-26T13:13:54.447Z,10.53
2019-02-26T13:16:27.495Z,6.40
2019-02-26T13:19:04.351Z,5.75
2019-02-26T13:21:35.842Z,4.55
2019-02-26T13:24:12.372Z,5.47
2019-02-26T13:26:48.810Z,7.87
2019-02-26T13:29:19.534Z,12.10
2019-02-26T13:31:56.540Z,7.72
2019-02-26T13:34:27.633Z,6.05
2019-02-26T13:37:00.477Z,7.62
2019-02-26T13:39:38.332Z,6.72
2019-02-26T13:42:10.708Z,5.75
2019-02-26T13:44:42.935Z,4.22
2019-02-26T13:47:16.083Z,7.35
2019-02-26T13:49:49.471Z,8.98
2019-02-26T13:52:22.338Z,7.35
2019-02-26T13:54:55.585Z,6.67
2019-02-26T13:57:28.506Z,7.08
2019-02-26T14:00:01.732Z,7.03
2019-02-26T14:02:34.739Z,7.45
2019-02-26T14:05:08.605Z,8.60
2019-02-26T14:07:41.772Z,9.53
2019-02-26T14:10:15.456Z,5.72
2019-02-26T14:12:48.594Z,7.08
2019-02-26T14:15:22.793Z,9.75
2019-02-26T14:17:55.990Z,8.98
2019-02-26T14:20:28.936Z,8.30
2019-02-26T14:23:02.055Z,18.35
2019-02-26T14:25:35.139Z,8.85
2019-02-26T14:28:08.209Z,6.17
2019-02-26T14:30:41.103Z,7.12
2019-02-26T14:33:14.092Z,6.95
2019-02-26T14:35:47.308Z,11.12
2019-02-26T14:38:20.169Z,8.05
2019-02-26T14:40:53.752Z,6.47
2019-02-26T14:43:26.958Z,9.88
2019-02-26T14:46:00.194Z,8.50
2019-02-26T14:48:33.649Z,9.68
2019-02-26T14:51:06.902Z,13.15
2019-02-26T14:53:39.879Z,13.30
2019-02-26T14:56:12.756Z,11.12
2019-02-26T14:58:45.755Z,10.03
2019-02-26T15:01:18.580Z,11.15
2019-02-26T15:03:51.653Z,8.70
2019-02-26T15:06:24.590Z,9.23
2019-02-26T15:11:50.030Z,10.55
2019-02-26T15:14:22.926Z,8.00
2019-02-26T15:16:55.962Z,11.48
2019-02-26T15:19:29.100Z,10.73
2019-02-26T15:22:02.299Z,9.28
2019-02-26T15:24:35.131Z,12.25
2019-02-26T15:27:08.390Z,14.05
2019-02-26T15:29:41.316Z,7.75
2019-02-26T15:32:14.354Z,10.13
2019-02-26T15:34:47.514Z,13.43
2019-02-26T15:37:20.490Z,13.65
2019-02-26T15:39:53.781Z,10.78
2019-02-26T15:42:26.719Z,14.58
2019-02-26T15:44:59.815Z,14.18
2019-02-26T15:47:33.427Z,12.15
2019-02-26T15:50:08.993Z,13.03
2019-02-26T15:52:42.431Z,14.20
2019-02-26T15:55:17.872Z,12.68
2019-02-26T15:57:50.766Z,15.28
2019-02-26T16:00:24.406Z,18.37
2019-02-26T16:02:59.351Z,16.65
2019-02-26T16:05:32.374Z,12.80
2019-02-26T16:08:05.428Z,19.75
2019-02-26T16:10:38.495Z,11.57
2019-02-26T16:13:11.370Z,13.25
2019-02-26T16:15:44.205Z,14.87
2019-02-26T16:18:17.515Z,18.55
2019-02-26T16:20:50.994Z,21.73
2019-02-26T16:23:23.907Z,12.43
2019-02-26T16:25:56.922Z,16.75
2019-02-26T16:28:30.010Z,13.68
2019-02-26T16:31:04.622Z,11.53
2019-02-26T16:33:37.927Z,10.38
2019-02-26T16:36:10.827Z,16.65
2019-02-26T16:38:43.863Z,11.15
2019-02-26T16:41:16.860Z,16.23
2019-02-26T16:43:51.934Z,22.10
2019-02-26T16:46:24.946Z,21.07
2019-02-26T16:48:58.072Z,13.90
2019-02-26T16:51:31.132Z,12.70
2019-02-26T16:54:04.727Z,22.60
2019-02-26T16:56:38.944Z,21.45
2019-02-26T16:59:11.821Z,17.98
2019-02-26T17:01:45.969Z,17.07
2019-02-26T17:04:18.871Z,16.30
2019-02-26T17:06:53.919Z,17.37
2019-02-26T17:09:27.323Z,14.85
2019-02-26T17:12:00.571Z,19.98
2019-02-26T17:14:33.746Z,12.10
2019-02-26T17:17:06.997Z,14.68
2019-02-26T17:19:40.174Z,22.20
2019-02-26T17:22:13.153Z,17.98
2019-02-26T17:24:46.181Z,18.77
2019-02-26T17:27:19.257Z,16.05
2019-02-26T17:29:52.422Z,23.83
2019-02-26T17:32:25.306Z,24.87
2019-02-26T17:34:58.282Z,23.60
2019-02-26T17:37:31.303Z,15.25
2019-02-26T17:40:05.421Z,16.15
2019-02-26T17:42:38.927Z,25.25
2019-02-26T17:45:14.062Z,29.27
2019-02-26T17:47:47.224Z,21.33
2019-02-26T17:50:27.013Z,24.47
2019-02-26T17:53:00.134Z,15.63
2019-02-26T17:55:33.192Z,15.60
2019-02-26T17:58:09.787Z,18.92
2019-02-26T18:00:43.033Z,19.65
2019-02-26T18:03:15.873Z,20.08
2019-02-26T18:05:51.563Z,16.77
2019-02-26T18:08:23.843Z,20.95
2019-02-26T18:10:56.844Z,17.17
2019-02-26T18:13:29.813Z,15.08
2019-02-26T18:16:08.979Z,22.82
2019-02-26T18:18:37.536Z,18.05
2019-02-26T18:21:10.340Z,15.85
2019-02-26T18:23:43.557Z,17.57
2019-02-26T18:26:17.842Z,14.83
2019-02-26T18:28:53.134Z,12.73
2019-02-26T18:31:26.741Z,20.43
2019-02-26T18:33:59.704Z,17.40
2019-02-26T18:36:32.601Z,15.38
2019-02-26T18:39:05.927Z,17.67
2019-02-26T18:41:40.913Z,20.92
2019-02-26T18:44:13.879Z,18.67
2019-02-26T18:46:47.010Z,20.65
2019-02-26T18:49:21.832Z,19.45
2019-02-26T18:51:54.834Z,15.78
2019-02-26T18:54:27.803Z,15.98
2019-02-26T18:57:00.882Z,19.00
2019-02-26T18:59:33.840Z,24.80
2019-02-26T19:02:06.866Z,18.00
2019-02-26T19:04:40.819Z,26.90
2019-02-26T19:07:14.104Z,19.10
2019-02-26T19:09:46.939Z,25.32
2019-02-26T19:12:19.976Z,20.12
2019-02-26T19:14:53.076Z,24.90
2019-02-26T19:17:26.836Z,23.60
2019-02-26T19:20:00.281Z,19.03
2019-02-26T19:22:33.344Z,19.70
2019-02-26T19:25:06.902Z,18.87
2019-02-26T19:27:41.307Z,20.03
2019-02-26T19:30:15.455Z,19.17
2019-02-26T19:32:48.459Z,20.80
2019-02-26T19:35:21.455Z,18.87
2019-02-26T19:37:56.066Z,22.70
2019-02-26T19:40:31.870Z,23.23
2019-02-26T19:43:04.930Z,21.37
2019-02-26T19:45:37.927Z,21.40
2019-02-26T19:48:10.872Z,31.60
2019-02-26T19:50:47.947Z,32.87
2019-02-26T19:53:19.643Z,30.60
2019-02-26T19:55:53.200Z,27.67
2019-02-26T19:58:26.425Z,26.43
2019-02-26T20:00:59.449Z,20.13
2019-02-26T20:03:39.503Z,24.40
2019-02-26T20:06:07.400Z,26.77
2019-02-26T20:08:40.269Z,31.23
2019-02-26T20:11:13.415Z,32.97
2019-02-26T20:13:46.454Z,31.40
2019-02-26T20:16:19.421Z,54.33
2019-02-26T20:18:52.425Z,23.93
2019-02-26T20:21:26.124Z,28.77
2019-02-26T20:23:59.521Z,21.00
2019-02-26T20:26:32.573Z,24.40
2019-02-26T20:29:07.616Z,29.40
2019-02-26T20:31:40.491Z,24.60
2019-02-26T20:34:13.574Z,22.07
2019-02-26T20:36:48.876Z,21.17
2019-02-26T20:39:21.208Z,17.37
2019-02-26T20:41:55.749Z,21.30
2019-02-26T20:44:29.298Z,22.13
2019-02-26T20:47:02.655Z,17.93
2019-02-26T20:49:35.581Z,20.10
2019-02-26T20:52:08.865Z,16.83
2019-02-26T20:54:44.475Z,23.07
2019-02-26T20:57:16.577Z,18.73
2019-02-26T20:59:51.533Z,20.17
2019-02-26T21:02:24.326Z,18.63
2019-02-26T21:04:57.131Z,15.07
2019-02-26T21:07:30.090Z,15.87
2019-02-26T21:10:04.271Z,15.63
2019-02-26T21:12:38.386Z,15.77
2019-02-26T21:15:14.342Z,14.03
2019-02-26T21:17:47.346Z,13.70
2019-02-26T21:20:20.339Z,17.40
2019-02-26T21:22:54.903Z,13.70
2019-02-26T21:25:28.191Z,11.07
2019-02-26T21:28:01.556Z,10.63
2019-02-26T21:30:34.540Z,15.80
2019-02-26T21:33:07.524Z,11.97
2019-02-26T21:35:40.616Z,13.37
2019-02-26T21:38:13.675Z,11.90
2019-02-26T21:40:49.000Z,11.67
2019-02-26T21:43:21.877Z,12.03
2019-02-26T21:45:54.779Z,14.75
2019-02-26T21:48:27.904Z,16.07
2019-02-26T21:51:00.755Z,10.93
2019-02-26T21:53:33.599Z,15.18
2019-02-26T21:56:06.670Z,17.52
2019-02-26T21:58:39.591Z,12.07
2019-02-26T22:01:12.471Z,12.10
2019-02-26T22:03:45.346Z,11.77
2019-02-26T22:06:18.162Z,11.33
2019-02-26T22:08:51.214Z,12.27
2019-02-26T22:11:27.674Z,15.87
2019-02-26T22:14:02.994Z,12.43
2019-02-26T22:16:35.366Z,10.80
2019-02-26T22:19:08.359Z,12.13
2019-02-26T22:21:51.821Z,11.40
2019-02-26T22:24:23.205Z,12.73
2019-02-26T22:26:59.135Z,13.47
2019-02-26T22:29:33.854Z,14.83
2019-02-26T22:32:06.539Z,20.97
2019-02-26T22:34:39.458Z,19.63
2019-02-26T22:37:12.397Z,14.17
2019-02-26T22:39:45.185Z,17.63
2019-02-26T22:42:18.424Z,15.43
2019-02-26T22:44:54.435Z,25.23
2019-02-26T22:47:26.197Z,21.97
2019-02-26T22:49:59.036Z,17.00
2019-02-26T22:52:32.031Z,16.03
2019-02-26T22:55:05.906Z,20.60
2019-02-26T22:57:40.178Z,18.23
2019-02-26T23:00:53.228Z,14.80
2019-02-26T23:03:27.911Z,21.97
2019-02-26T23:06:00.932Z,20.27
2019-02-26T23:08:34.310Z,18.70
2019-02-26T23:11:08.505Z,17.70
2019-02-26T23:13:42.101Z,18.07
2019-02-26T23:16:18.108Z,17.73
2019-02-26T23:18:50.686Z,15.40
2019-02-26T23:21:23.878Z,15.47
2019-02-26T23:23:57.050Z,17.80
2019-02-26T23:26:30.355Z,20.87
2019-02-26T23:29:03.423Z,9.97
2019-02-26T23:31:36.595Z,12.50
2019-02-26T23:34:09.683Z,15.33
2019-02-26T23:36:42.558Z,12.80
2019-02-26T23:39:16.267Z,18.13
2019-02-26T23:41:51.091Z,16.77
2019-02-26T23:44:24.101Z,20.20
2019-02-26T23:46:57.103Z,17.37
2019-02-26T23:49:30.153Z,17.17
2019-02-26T23:52:03.028Z,14.00
2019-02-26T23:54:39.823Z,15.37
2019-02-26T23:57:10.603Z,13.60
2019-02-26T23:59:43.633Z,12.67
